Time;durP1;ratioP1;P1;durP2;ratioP2;P2;SDS_P1;SDS_P2;PMS_P1;PMS_P2;Temp;Humidity;BMP_temperature;BMP_pressure;BME280_temperature;BME280_humidity;BME280_pressure;Samples;Min_cycle;Max_cycle;Signal;HPM_P1;HPM_P2
2022/08/25 00:00:47;;;;;;;30.55;27.27;;;;;;;;;;4975430;28;20046;-84
2022/08/25 00:03:13;;;;;;;28.40;25.35;;;;;;;;;;4974971;28;20101;-84
2022/08/25 00:05:39;;;;;;;28.17;25.25;;;;;;;;;;4973921;28;20050;-84
2022/08/25 00:08:06;;;;;;;27.73;24.92;;;;;;;;;;4973513;28;20078;-84
2022/08/25 00:10:36;;;;;;;29.17;24.50;;;;;;;;;;4973012;28;20054;-84
2022/08/25 00:13:03;;;;;;;28.00;25.02;;;;;;;;;;4971933;28;20182;-84
2022/08/25 00:15:30;;;;;;;29.05;25.98;;;;;;;;;;4975083;28;20096;-84
2022/08/25 00:17:57;;;;;;;31.85;28.65;;;;;;;;;;4973600;28;20055;-84
2022/08/25 00:20:24;;;;;;;30.67;27.52;;;;;;;;;;4973555;28;20382;-84
2022/08/25 00:22:50;;;;;;;31.63;27.85;;;;;;;;;;4973204;28;20055;-84
2022/08/25 00:25:16;;;;;;;29.08;26.20;;;;;;;;;;4972092;28;20045;-84
2022/08/25 00:27:42;;;;;;;30.67;27.73;;;;;;;;;;4972706;28;20059;-84
2022/08/25 00:30:09;;;;;;;27.83;25.23;;;;;;;;;;4974302;28;20129;-84
2022/08/25 00:32:36;;;;;;;28.75;25.67;;;;;;;;;;4974431;28;20563;-84
2022/08/25 00:35:03;;;;;;;27.52;24.80;;;;;;;;;;4973759;28;20047;-84
2022/08/25 00:37:29;;;;;;;26.75;24.13;;;;;;;;;;4971789;28;20058;-84
2022/08/25 00:39:57;;;;;;;25.30;22.60;;;;;;;;;;4972424;28;20043;-84
2022/08/25 00:42:23;;;;;;;20.42;18.42;;;;;;;;;;5003937;28;20043;-84
2022/08/25 00:44:49;;;;;;;21.00;19.08;;;;;;;;;;4988695;28;20086;-84
2022/08/25 00:47:16;;;;;;;19.95;17.98;;;;;;;;;;4972092;28;20054;-84
2022/08/25 00:49:44;;;;;;;24.35;18.77;;;;;;;;;;4971804;28;20132;-84
2022/08/25 00:52:12;;;;;;;20.90;18.83;;;;;;;;;;4973635;28;20090;-84
2022/08/25 00:54:40;;;;;;;20.38;18.38;;;;;;;;;;4971928;28;20491;-84
2022/08/25 00:57:06;;;;;;;20.48;18.38;;;;;;;;;;4972780;28;20034;-84
2022/08/25 00:59:33;;;;;;;22.65;18.77;;;;;;;;;;4972585;28;20128;-84
2022/08/25 01:01:59;;;;;;;21.08;18.80;;;;;;;;;;4970131;28;20058;-85
2022/08/25 01:04:26;;;;;;;20.58;18.48;;;;;;;;;;4973512;28;20526;-84
2022/08/25 01:06:52;;;;;;;19.58;17.58;;;;;;;;;;4960894;28;20069;-84
2022/08/25 01:09:19;;;;;;;19.13;17.13;;;;;;;;;;4973212;28;20050;-84
2022/08/25 01:11:46;;;;;;;20.00;18.05;;;;;;;;;;4970493;28;20050;-84
2022/08/25 01:14:14;;;;;;;20.60;18.48;;;;;;;;;;4972570;28;20488;-84
2022/08/25 01:16:42;;;;;;;21.50;19.27;;;;;;;;;;4973619;28;20571;-84
2022/08/25 01:19:10;;;;;;;23.50;19.15;;;;;;;;;;4972672;28;20499;-84
2022/08/25 01:21:42;;;;;;;20.77;18.60;;;;;;;;;;4988205;28;20050;-84
2022/08/25 01:24:09;;;;;;;21.35;19.00;;;;;;;;;;4972462;28;20090;-84
2022/08/25 01:26:36;;;;;;;21.23;18.95;;;;;;;;;;4970840;28;20189;-84
2022/08/25 01:29:20;;;;;;;22.45;18.73;;;;;;;;;;4972534;28;20412;-84
2022/08/25 01:31:51;;;;;;;20.50;18.25;;;;;;;;;;4972474;28;20058;-84
2022/08/25 01:34:17;;;;;;;20.90;18.80;;;;;;;;;;4971067;28;20050;-84
2022/08/25 01:36:44;;;;;;;19.83;17.85;;;;;;;;;;4971485;28;20050;-83
2022/08/25 01:39:11;;;;;;;20.63;18.35;;;;;;;;;;4973244;28;20089;-84
2022/08/25 01:41:49;;;;;;;20.65;18.48;;;;;;;;;;4970432;28;20047;-83
2022/08/25 01:44:16;;;;;;;20.48;18.33;;;;;;;;;;4972225;28;20054;-84
2022/08/25 01:46:43;;;;;;;20.77;18.70;;;;;;;;;;4970325;28;20043;-84
2022/08/25 01:49:09;;;;;;;21.92;18.55;;;;;;;;;;4972601;28;20532;-84
2022/08/25 01:51:42;;;;;;;23.27;19.48;;;;;;;;;;4971116;28;20046;-84
2022/08/25 01:54:08;;;;;;;20.15;18.02;;;;;;;;;;4973028;28;20082;-84
2022/08/25 01:56:34;;;;;;;21.63;19.52;;;;;;;;;;4971885;28;20083;-84
2022/08/25 01:59:00;;;;;;;23.40;18.33;;;;;;;;;;4970998;28;20062;-84
2022/08/25 02:01:27;;;;;;;22.92;19.45;;;;;;;;;;4972036;28;20137;-84
2022/08/25 02:03:54;;;;;;;21.67;18.60;;;;;;;;;;4986906;28;20133;-84
2022/08/25 02:06:40;;;;;;;21.10;18.80;;;;;;;;;;4955419;28;20061;-84
2022/08/25 02:09:06;;;;;;;;;;;;;;;;;;4971519;28;20058;-84
2022/08/25 02:11:34;;;;;;;20.40;18.30;;;;;;;;;;4972778;28;19918;-84
2022/08/25 02:14:00;;;;;;;19.92;17.92;;;;;;;;;;4971399;28;20088;-84
2022/08/25 02:16:27;;;;;;;19.58;17.58;;;;;;;;;;4955084;28;20051;-84
2022/08/25 02:18:54;;;;;;;18.80;16.75;;;;;;;;;;4970646;28;20046;-84
2022/08/25 02:21:20;;;;;;;17.98;16.15;;;;;;;;;;4972537;28;20046;-84
2022/08/25 02:23:46;;;;;;;20.77;16.42;;;;;;;;;;4971426;28;20043;-84
2022/08/25 02:26:15;;;;;;;16.95;14.93;;;;;;;;;;4972360;28;20133;-84
2022/08/25 02:28:42;;;;;;;16.65;14.82;;;;;;;;;;4971275;28;20117;-84
2022/08/25 02:31:08;;;;;;;16.33;14.63;;;;;;;;;;4971007;28;20458;-84
2022/08/25 02:33:34;;;;;;;16.15;14.45;;;;;;;;;;4969202;28;20377;-84
2022/08/25 02:36:01;;;;;;;16.38;13.75;;;;;;;;;;4971496;28;20515;-84
2022/08/25 02:38:30;;;;;;;15.43;13.93;;;;;;;;;;4971345;28;20066;-84
2022/08/25 02:40:57;;;;;;;18.02;14.27;;;;;;;;;;4972002;28;20051;-84
2022/08/25 02:43:24;;;;;;;15.93;14.23;;;;;;;;;;4972714;28;20050;-84
2022/08/25 02:45:50;;;;;;;15.70;14.20;;;;;;;;;;4971871;28;20047;-84
2022/08/25 02:48:17;;;;;;;14.77;13.23;;;;;;;;;;4985799;28;20047;-84
2022/08/25 02:50:47;;;;;;;15.07;13.50;;;;;;;;;;4971203;28;20045;-84
2022/08/25 02:53:13;;;;;;;13.77;12.38;;;;;;;;;;4972002;28;20055;-84
2022/08/25 02:55:40;;;;;;;13.68;12.38;;;;;;;;;;4972148;28;20046;-84
2022/08/25 02:58:07;;;;;;;13.23;11.68;;;;;;;;;;4972280;28;20073;-84
2022/08/25 03:00:34;;;;;;;12.95;11.32;;;;;;;;;;4969774;28;20337;-84
2022/08/25 03:03:00;;;;;;;12.60;11.30;;;;;;;;;;4973381;28;20043;-84
2022/08/25 03:05:26;;;;;;;14.23;11.20;;;;;;;;;;4975142;28;20499;-84
2022/08/25 03:07:52;;;;;;;12.35;11.05;;;;;;;;;;4957372;28;20051;-84
2022/08/25 03:10:19;;;;;;;12.27;10.82;;;;;;;;;;4990936;28;20050;-84
2022/08/25 03:12:46;;;;;;;14.60;10.60;;;;;;;;;;4974690;28;20063;-84
2022/08/25 03:15:17;;;;;;;13.68;11.05;;;;;;;;;;4975568;28;20047;-84
2022/08/25 03:17:50;;;;;;;13.77;10.68;;;;;;;;;;4975565;28;20042;-84
2022/08/25 03:20:16;;;;;;;11.10;9.98;;;;;;;;;;4975511;28;20137;-84
2022/08/25 03:22:42;;;;;;;14.02;9.82;;;;;;;;;;4973728;28;20050;-84
2022/08/25 03:27:53;;;;;;;10.85;9.75;;;;;;;;;;4974588;28;20090;-84
2022/08/25 03:30:20;;;;;;;12.05;9.82;;;;;;;;;;4974062;28;20059;-84
2022/08/25 03:32:46;;;;;;;15.15;10.23;;;;;;;;;;4974656;28;20051;-84
2022/08/25 03:35:12;;;;;;;11.30;10.05;;;;;;;;;;4974881;28;20049;-84
2022/08/25 03:37:39;;;;;;;11.30;10.10;;;;;;;;;;4957897;28;20059;-84
2022/08/25 03:40:07;;;;;;;11.50;10.13;;;;;;;;;;4975361;28;20050;-84
2022/08/25 03:42:33;;;;;;;11.57;9.85;;;;;;;;;;4973083;28;20415;-84
2022/08/25 03:45:01;;;;;;;13.80;9.52;;;;;;;;;;4973665;28;20042;-84
2022/08/25 03:47:28;;;;;;;11.65;9.40;;;;;;;;;;4974628;28;20050;-84
2022/08/25 03:49:55;;;;;;;13.00;9.98;;;;;;;;;;4957314;28;20141;-84
2022/08/25 03:52:21;;;;;;;10.50;9.35;;;;;;;;;;5006183;28;20061;-84
2022/08/25 03:54:47;;;;;;;10.90;9.13;;;;;;;;;;4973939;28;20043;-84
2022/08/25 03:57:13;;;;;;;12.70;9.68;;;;;;;;;;4974009;28;20039;-84
2022/08/25 03:59:39;;;;;;;9.48;8.57;;;;;;;;;;4974597;28;20054;-84
2022/08/25 04:02:06;;;;;;;12.48;9.05;;;;;;;;;;4974628;28;20054;-84
2022/08/25 04:04:32;;;;;;;10.55;8.68;;;;;;;;;;4975488;28;20047;-84
2022/08/25 04:06:58;;;;;;;12.52;9.60;;;;;;;;;;4974003;28;20484;-84
2022/08/25 04:09:25;;;;;;;12.07;9.23;;;;;;;;;;4972928;28;20039;-84
2022/08/25 04:11:51;;;;;;;9.90;8.75;;;;;;;;;;4974008;28;20150;-84
2022/08/25 04:14:17;;;;;;;9.57;8.57;;;;;;;;;;4971582;28;20030;-84
2022/08/25 04:16:44;;;;;;;11.45;9.48;;;;;;;;;;4973456;28;20389;-84
2022/08/25 04:19:10;;;;;;;11.50;9.13;;;;;;;;;;4974560;28;20507;-84
2022/08/25 04:21:37;;;;;;;11.20;8.80;;;;;;;;;;4974997;28;20051;-84
2022/08/25 04:24:04;;;;;;;11.13;9.30;;;;;;;;;;4974391;28;20129;-84
2022/08/25 04:26:34;;;;;;;9.82;8.75;;;;;;;;;;4973624;28;20169;-84
2022/08/25 04:29:02;;;;;;;10.50;9.00;;;;;;;;;;4973082;28;20518;-84
2022/08/25 04:31:28;;;;;;;12.35;9.13;;;;;;;;;;4973521;28;20051;-84
2022/08/25 04:33:54;;;;;;;11.07;9.00;;;;;;;;;;4973194;28;20057;-84
2022/08/25 04:36:20;;;;;;;11.05;8.52;;;;;;;;;;4972725;28;20043;-85
2022/08/25 04:38:48;;;;;;;11.60;9.00;;;;;;;;;;4974611;28;20094;-85
2022/08/25 04:41:15;;;;;;;10.70;8.77;;;;;;;;;;4973187;28;20065;-85
2022/08/25 04:43:43;;;;;;;11.38;8.68;;;;;;;;;;4971781;28;20537;-85
2022/08/25 04:46:14;;;;;;;10.27;8.52;;;;;;;;;;4973036;28;20057;-85
2022/08/25 04:48:40;;;;;;;10.43;8.35;;;;;;;;;;4974631;28;20054;-85
2022/08/25 04:51:07;;;;;;;17.58;9.20;;;;;;;;;;4973663;28;20121;-85
2022/08/25 04:53:34;;;;;;;9.82;8.73;;;;;;;;;;4972814;28;20078;-85
2022/08/25 04:56:00;;;;;;;10.18;8.88;;;;;;;;;;4972840;28;20050;-85
2022/08/25 04:58:26;;;;;;;9.73;8.70;;;;;;;;;;4971943;28;20054;-85
2022/08/25 05:00:52;;;;;;;9.63;8.63;;;;;;;;;;5005560;28;20059;-85
2022/08/25 05:03:19;;;;;;;11.88;8.88;;;;;;;;;;4972365;28;20097;-85
2022/08/25 05:05:45;;;;;;;10.85;8.15;;;;;;;;;;4972768;28;20093;-85
2022/08/25 05:08:11;;;;;;;11.90;8.55;;;;;;;;;;4972847;28;20051;-85
2022/08/25 05:10:40;;;;;;;10.90;8.30;;;;;;;;;;4972544;28;20050;-90
2022/08/25 05:13:06;;;;;;;11.43;7.43;;;;;;;;;;4972278;28;20047;-85
2022/08/25 05:15:50;;;;;;;14.50;8.82;;;;;;;;;;4974416;28;20042;-86
2022/08/25 05:18:18;;;;;;;11.80;8.40;;;;;;;;;;4972736;28;20448;-86
2022/08/25 05:20:44;;;;;;;11.93;8.52;;;;;;;;;;4972573;28;20062;-86
2022/08/25 05:23:10;;;;;;;10.48;8.05;;;;;;;;;;4971939;28;20047;-85
2022/08/25 05:25:36;;;;;;;10.63;7.70;;;;;;;;;;4970285;28;20134;-86
2022/08/25 05:28:02;;;;;;;10.55;7.40;;;;;;;;;;4971752;28;20043;-86
2022/08/25 05:30:28;;;;;;;11.43;8.27;;;;;;;;;;4973452;28;20047;-86
2022/08/25 05:32:54;;;;;;;11.20;7.93;;;;;;;;;;4972451;28;20049;-86
2022/08/25 05:35:20;;;;;;;9.85;7.57;;;;;;;;;;4973592;28;20038;-86
2022/08/25 05:37:46;;;;;;;10.77;8.00;;;;;;;;;;4973402;28;20059;-85
2022/08/25 05:40:13;;;;;;;12.32;7.88;;;;;;;;;;4970862;28;20456;-86
2022/08/25 05:42:39;;;;;;;9.55;7.53;;;;;;;;;;4973155;28;20130;-86
2022/08/25 05:45:05;;;;;;;9.77;7.75;;;;;;;;;;4971873;28;20474;-86
2022/08/25 05:47:32;;;;;;;10.50;8.00;;;;;;;;;;4971812;28;20050;-83
2022/08/25 05:49:58;;;;;;;9.80;7.72;;;;;;;;;;4971520;28;20051;-83
2022/08/25 05:52:26;;;;;;;9.45;7.32;;;;;;;;;;4970854;28;20073;-84
2022/08/25 05:54:52;;;;;;;9.98;8.57;;;;;;;;;;4971428;28;20385;-83
2022/08/25 05:57:18;;;;;;;12.00;7.95;;;;;;;;;;5002033;28;20051;-82
2022/08/25 05:59:44;;;;;;;9.68;8.13;;;;;;;;;;4971301;28;20381;-82
2022/08/25 06:04:56;;;;;;;11.85;7.78;;;;;;;;;;4972753;28;20046;-81
2022/08/25 06:07:22;;;;;;;13.32;8.30;;;;;;;;;;4973287;28;20089;-82
2022/08/25 06:09:48;;;;;;;11.27;7.47;;;;;;;;;;4971129;28;20050;-81
2022/08/25 06:12:15;;;;;;;11.25;8.57;;;;;;;;;;4971241;28;20049;-82
2022/08/25 06:14:41;;;;;;;11.52;7.20;;;;;;;;;;4969869;28;20404;-82
2022/08/25 06:17:07;;;;;;;12.27;7.80;;;;;;;;;;4971407;28;20488;-82
2022/08/25 06:19:33;;;;;;;12.40;8.18;;;;;;;;;;4971506;28;20047;-81
2022/08/25 06:22:00;;;;;;;14.50;7.53;;;;;;;;;;4972381;28;20137;-82
2022/08/25 06:24:26;;;;;;;11.90;7.32;;;;;;;;;;4969476;28;20043;-82
2022/08/25 06:26:53;;;;;;;10.20;6.78;;;;;;;;;;4972570;28;20129;-83
2022/08/25 06:29:19;;;;;;;9.60;7.35;;;;;;;;;;4972444;28;20452;-83
2022/08/25 06:31:45;;;;;;;10.80;7.60;;;;;;;;;;4969427;28;20495;-83
2022/08/25 06:34:12;;;;;;;10.23;7.85;;;;;;;;;;4969438;28;20097;-82
2022/08/25 06:36:38;;;;;;;8.27;7.00;;;;;;;;;;4970173;28;20317;-83
2022/08/25 06:39:04;;;;;;;10.05;7.25;;;;;;;;;;4969266;28;20058;-82
2022/08/25 06:41:30;;;;;;;9.63;6.45;;;;;;;;;;4972282;28;20055;-84
2022/08/25 06:43:57;;;;;;;9.48;6.85;;;;;;;;;;4972314;28;20045;-84
2022/08/25 06:46:25;;;;;;;8.30;7.38;;;;;;;;;;4969135;28;20062;-84
2022/08/25 06:48:52;;;;;;;11.82;6.75;;;;;;;;;;4971966;28;20492;-84
2022/08/25 06:51:18;;;;;;;8.65;6.85;;;;;;;;;;4970212;28;20046;-83
2022/08/25 06:53:46;;;;;;;8.32;6.60;;;;;;;;;;4970137;28;20030;-83
2022/08/25 06:56:13;;;;;;;9.27;7.00;;;;;;;;;;4970851;28;20105;-85
2022/08/25 06:58:39;;;;;;;10.32;6.97;;;;;;;;;;5003735;28;20122;-85
2022/08/25 07:01:06;;;;;;;8.48;6.38;;;;;;;;;;5002927;28;20452;-84
2022/08/25 07:03:32;;;;;;;8.43;6.25;;;;;;;;;;4971141;28;20039;-86
2022/08/25 07:05:58;;;;;;;9.15;6.18;;;;;;;;;;4968216;28;20133;-86
2022/08/25 07:08:25;;;;;;;9.23;6.32;;;;;;;;;;4971326;28;20042;-95
2022/08/25 07:10:51;;;;;;;9.27;6.45;;;;;;;;;;4971509;28;20053;-93
2022/08/25 07:13:17;;;;;;;9.65;6.38;;;;;;;;;;4972150;28;20058;-93
2022/08/25 07:15:44;;;;;;;8.35;6.28;;;;;;;;;;4972421;28;20050;-93
2022/08/25 07:18:10;;;;;;;8.88;6.85;;;;;;;;;;4973338;28;20058;-93
2022/08/25 07:20:37;;;;;;;8.00;5.40;;;;;;;;;;5004512;28;20047;-93
2022/08/25 07:23:03;;;;;;;8.13;5.65;;;;;;;;;;4956086;28;20050;-93
2022/08/25 07:25:29;;;;;;;7.88;6.22;;;;;;;;;;4972069;28;20047;-92
2022/08/25 07:27:55;;;;;;;7.78;5.88;;;;;;;;;;4971955;28;20101;-92
2022/08/25 07:30:22;;;;;;;8.48;5.10;;;;;;;;;;4972552;28;20043;-92
2022/08/25 07:32:48;;;;;;;6.72;5.47;;;;;;;;;;4971975;28;20054;-93
2022/08/25 07:35:14;;;;;;;8.05;5.25;;;;;;;;;;4955531;28;20054;-92
2022/08/25 07:37:41;;;;;;;6.65;5.05;;;;;;;;;;4954840;28;20058;-89
2022/08/25 07:40:08;;;;;;;10.70;5.57;;;;;;;;;;4971165;28;20418;-92
2022/08/25 07:42:34;;;;;;;7.25;5.32;;;;;;;;;;4974591;28;20057;-92
2022/08/25 07:45:01;;;;;;;6.57;5.10;;;;;;;;;;4989401;28;20081;-95
2022/08/25 07:47:27;;;;;;;8.52;5.20;;;;;;;;;;4974425;28;20055;-92
2022/08/25 07:49:53;;;;;;;10.38;5.80;;;;;;;;;;4975577;28;20043;-92
2022/08/25 07:52:19;;;;;;;9.32;5.25;;;;;;;;;;4971151;28;20063;-92
2022/08/25 07:54:45;;;;;;;7.45;5.32;;;;;;;;;;4974160;28;20054;-90
2022/08/25 07:57:11;;;;;;;6.93;4.90;;;;;;;;;;4959643;28;20132;-93
2022/08/25 07:59:41;;;;;;;8.15;5.47;;;;;;;;;;4976152;28;20049;-90
2022/08/25 08:02:12;;;;;;;6.18;4.90;;;;;;;;;;4972471;28;20178;-91
2022/08/25 08:04:38;;;;;;;9.32;5.00;;;;;;;;;;4974757;28;20077;-91
2022/08/25 08:07:05;;;;;;;10.30;5.60;;;;;;;;;;4973754;28;20060;-92
2022/08/25 08:09:31;;;;;;;9.68;6.05;;;;;;;;;;4975568;28;20389;-92
2022/08/25 08:11:57;;;;;;;7.57;5.03;;;;;;;;;;4974181;28;20042;-92
2022/08/25 08:14:24;;;;;;;8.40;5.03;;;;;;;;;;4975903;28;20504;-92
2022/08/25 08:16:50;;;;;;;7.28;4.97;;;;;;;;;;4979917;28;20053;-95
2022/08/25 08:19:16;;;;;;;7.95;5.03;;;;;;;;;;4977605;28;20116;-92
2022/08/25 08:21:42;;;;;;;6.65;5.25;;;;;;;;;;4976016;28;20043;-92
2022/08/25 08:24:09;;;;;;;5.18;4.65;;;;;;;;;;4973049;28;20043;-92
2022/08/25 08:26:35;;;;;;;8.82;4.85;;;;;;;;;;4981592;28;20074;-92
2022/08/25 08:29:01;;;;;;;6.20;4.60;;;;;;;;;;4974933;28;20391;-92
2022/08/25 08:31:27;;;;;;;5.82;4.43;;;;;;;;;;4975280;28;20054;-92
2022/08/25 08:33:54;;;;;;;7.30;4.50;;;;;;;;;;4975360;28;20046;-90
2022/08/25 08:36:21;;;;;;;7.57;4.85;;;;;;;;;;4976975;28;20062;-92
2022/08/25 08:38:47;;;;;;;6.50;4.60;;;;;;;;;;4975446;28;20407;-92
2022/08/25 08:44:10;;;;;;;7.22;4.63;;;;;;;;;;4973589;28;20046;-92
2022/08/25 08:46:41;;;;;;;13.65;4.82;;;;;;;;;;4967596;28;20053;-96
2022/08/25 08:49:15;;;;;;;6.32;4.88;;;;;;;;;;4980997;28;20081;-96
2022/08/25 08:51:48;;;;;;;6.30;4.80;;;;;;;;;;4977984;28;20051;-95
2022/08/25 09:04:52;;;;;;;;;;;;;;;;;;5104220;27;20637;-86
2022/08/25 09:07:18;;;;;;;;;;;;;;;;;;5100495;28;19920;-87
2022/08/25 09:09:44;;;;;;;5.93;4.50;;;;;;;;;;5081075;28;19931;-86
2022/08/25 09:12:26;;;;;;;6.43;4.30;;;;;;;;;;5073617;28;20072;-86
2022/08/25 09:15:04;;;;;;;5.95;4.18;;;;;;;;;;5070394;28;20074;-85
2022/08/25 09:17:42;;;;;;;7.32;4.10;;;;;;;;;;5070043;28;20040;-86
2022/08/25 09:20:27;;;;;;;4.90;3.88;;;;;;;;;;5066398;28;20045;-87
2022/08/25 09:23:09;;;;;;;6.72;3.85;;;;;;;;;;5070891;28;20052;-87
2022/08/25 09:25:59;;;;;;;4.32;3.92;;;;;;;;;;5074266;28;20501;-86
2022/08/25 09:28:25;;;;;;;6.38;4.32;;;;;;;;;;5073794;28;20048;-86
2022/08/25 09:30:58;;;;;;;10.77;5.13;;;;;;;;;;5071003;28;20041;-86
2022/08/25 09:33:26;;;;;;;5.72;4.18;;;;;;;;;;5070531;28;20118;-87
2022/08/25 09:35:55;;;;;;;5.35;3.90;;;;;;;;;;5070455;28;20048;-84
2022/08/25 09:38:21;;;;;;;5.93;4.15;;;;;;;;;;5070918;28;20131;-86
2022/08/25 09:40:50;;;;;;;5.68;3.72;;;;;;;;;;5071259;28;20040;-85
2022/08/25 09:43:23;;;;;;;5.95;3.63;;;;;;;;;;5070507;28;20078;-84
2022/08/25 09:45:58;;;;;;;5.65;4.10;;;;;;;;;;5074282;28;20129;-86
2022/08/25 09:48:36;;;;;;;6.63;3.83;;;;;;;;;;5071283;28;20048;-87
2022/08/25 09:51:28;;;;;;;5.03;3.50;;;;;;;;;;5062440;28;20057;-86
2022/08/25 09:53:59;;;;;;;7.00;3.95;;;;;;;;;;5066880;28;20048;-85
2022/08/25 09:56:30;;;;;;;6.18;3.90;;;;;;;;;;5069374;28;20409;-85
2022/08/25 09:59:16;;;;;;;4.75;3.88;;;;;;;;;;5069755;28;20048;-86
2022/08/25 10:01:50;;;;;;;5.90;3.58;;;;;;;;;;5064018;28;20120;-86
2022/08/25 10:04:24;;;;;;;6.28;3.83;;;;;;;;;;5064972;28;20136;-86
2022/08/25 10:06:51;;;;;;;5.25;3.60;;;;;;;;;;5056225;28;20041;-86
2022/08/25 10:09:28;;;;;;;6.95;3.70;;;;;;;;;;5056299;28;20049;-85
2022/08/25 10:11:54;;;;;;;7.72;3.63;;;;;;;;;;5054811;28;20077;-87
2022/08/25 10:14:35;;;;;;;5.78;3.55;;;;;;;;;;5056242;28;20505;-86
2022/08/25 10:17:15;;;;;;;4.40;3.35;;;;;;;;;;5061916;28;20066;-86
2022/08/25 10:19:42;;;;;;;4.95;3.38;;;;;;;;;;5049960;28;20042;-87
2022/08/25 10:22:23;;;;;;;7.05;3.50;;;;;;;;;;5056693;28;20124;-87
2022/08/25 10:24:49;;;;;;;6.35;3.60;;;;;;;;;;5054472;28;20045;-87
2022/08/25 10:27:21;;;;;;;4.30;3.17;;;;;;;;;;5053894;28;20037;-86
2022/08/25 10:29:50;;;;;;;5.55;3.28;;;;;;;;;;5049374;28;20375;-85
2022/08/25 10:32:31;;;;;;;6.93;3.60;;;;;;;;;;5055166;28;20441;-87
2022/08/25 10:34:58;;;;;;;4.65;3.40;;;;;;;;;;5037710;28;20412;-86
2022/08/25 10:37:35;;;;;;;5.85;3.10;;;;;;;;;;5053748;28;20053;-86
2022/08/25 10:40:04;;;;;;;5.53;3.40;;;;;;;;;;5055140;28;20194;-85
2022/08/25 10:42:38;;;;;;;6.95;3.40;;;;;;;;;;5055963;28;20037;-87
2022/08/25 10:48:11;;;;;;;5.63;3.40;;;;;;;;;;5052419;28;20049;-87
2022/08/25 10:50:59;;;;;;;5.60;3.90;;;;;;;;;;5056209;28;20045;-86
2022/08/25 10:53:25;;;;;;;6.55;3.45;;;;;;;;;;5053826;28;20037;-87
2022/08/25 10:55:57;;;;;;;5.63;3.50;;;;;;;;;;5054418;28;20048;-87
2022/08/25 10:58:33;;;;;;;6.40;3.85;;;;;;;;;;5053385;28;20120;-87
2022/08/25 11:01:18;;;;;;;6.47;3.22;;;;;;;;;;5045431;28;20462;-87
2022/08/25 11:03:50;;;;;;;4.93;3.63;;;;;;;;;;5053245;28;20158;-86
2022/08/25 11:06:20;;;;;;;3.88;3.22;;;;;;;;;;5054233;28;20044;-86
2022/08/25 11:08:57;;;;;;;4.70;3.20;;;;;;;;;;5054186;28;20045;-87
2022/08/25 11:11:35;;;;;;;6.35;3.33;;;;;;;;;;5055113;28;20073;-84
2022/08/25 11:14:07;;;;;;;5.30;3.75;;;;;;;;;;5054882;28;20045;-86
2022/08/25 11:16:44;;;;;;;6.53;3.40;;;;;;;;;;5052895;28;20045;-85
2022/08/25 11:19:17;;;;;;;5.55;3.30;;;;;;;;;;5053807;28;20052;-85
2022/08/25 11:21:49;;;;;;;6.18;3.65;;;;;;;;;;5054473;28;20209;-85
2022/08/25 11:24:27;;;;;;;4.95;3.30;;;;;;;;;;5054543;28;20106;-86
2022/08/25 11:26:55;;;;;;;4.80;3.90;;;;;;;;;;5053016;28;20130;-87
2022/08/25 11:29:23;;;;;;;5.57;3.50;;;;;;;;;;5037025;28;20375;-84
2022/08/25 11:31:53;;;;;;;5.53;3.53;;;;;;;;;;5052847;28;20044;-86
2022/08/25 11:34:22;;;;;;;6.25;3.35;;;;;;;;;;5037099;28;20037;-86
2022/08/25 11:36:56;;;;;;;6.07;3.58;;;;;;;;;;5055721;28;20037;-86
2022/08/25 11:39:37;;;;;;;7.30;3.75;;;;;;;;;;5056388;28;20049;-86
2022/08/25 11:42:25;;;;;;;4.32;3.38;;;;;;;;;;5055629;28;20525;-86
2022/08/25 11:45:00;;;;;;;6.85;3.90;;;;;;;;;;5057652;28;20100;-86
2022/08/25 11:47:32;;;;;;;6.32;3.53;;;;;;;;;;5055893;28;20048;-86
2022/08/25 11:50:03;;;;;;;6.55;3.45;;;;;;;;;;5054707;28;20512;-85
2022/08/25 11:52:32;;;;;;;4.53;3.22;;;;;;;;;;5057061;28;20045;-86
2022/08/25 11:55:16;;;;;;;6.93;3.50;;;;;;;;;;5055746;28;20084;-86
2022/08/25 11:57:43;;;;;;;4.05;3.60;;;;;;;;;;5054478;28;20044;-87
2022/08/25 12:00:16;;;;;;;5.10;3.42;;;;;;;;;;5054362;28;20048;-86
2022/08/25 12:02:42;;;;;;;5.55;3.50;;;;;;;;;;5053710;28;20041;-87
2022/08/25 12:05:23;;;;;;;6.38;3.55;;;;;;;;;;5054425;28;20122;-85
2022/08/25 12:08:37;;;;;;;4.53;3.17;;;;;;;;;;5054501;28;20080;-87
2022/08/25 12:10:53;;;;;;;5.85;3.50;;;;;;;;;;5047876;28;20159;-86
2022/08/25 12:13:38;;;;;;;6.93;3.40;;;;;;;;;;5053696;28;20397;-85
2022/08/25 12:16:04;;;;;;;4.05;3.42;;;;;;;;;;5052901;28;20256;-85
2022/08/25 12:18:30;;;;;;;3.30;3.00;;;;;;;;;;5053658;28;20041;-87
2022/08/25 12:20:56;;;;;;;5.05;3.10;;;;;;;;;;5053559;28;20044;-86
2022/08/25 12:23:31;;;;;;;5.00;3.50;;;;;;;;;;5053029;28;20374;-85
2022/08/25 12:25:58;;;;;;;7.32;3.50;;;;;;;;;;5053535;28;20127;-86
2022/08/25 12:28:27;;;;;;;8.00;3.70;;;;;;;;;;5049226;28;20045;-85
2022/08/25 12:30:58;;;;;;;6.47;3.50;;;;;;;;;;5052402;28;20048;-86
2022/08/25 12:33:43;;;;;;;5.25;3.00;;;;;;;;;;5068504;28;20072;-87
2022/08/25 12:36:15;;;;;;;5.03;3.25;;;;;;;;;;5048649;28;20656;-86
2022/08/25 12:38:48;;;;;;;4.22;3.13;;;;;;;;;;5053164;28;20099;-87
2022/08/25 12:41:22;;;;;;;3.55;3.17;;;;;;;;;;5053085;28;20041;-86
2022/08/25 12:43:50;;;;;;;4.97;3.28;;;;;;;;;;5052284;28;20555;-87
2022/08/25 12:46:22;;;;;;;4.80;3.17;;;;;;;;;;5053143;28;20406;-85
2022/08/25 12:49:03;;;;;;;5.18;3.22;;;;;;;;;;5059791;28;20135;-86
2022/08/25 12:51:32;;;;;;;4.75;3.30;;;;;;;;;;5052367;28;20044;-85
2022/08/25 12:54:17;;;;;;;4.65;3.50;;;;;;;;;;5055494;28;20040;-87
2022/08/25 12:57:12;;;;;;;4.88;3.50;;;;;;;;;;5074147;28;20041;-87
2022/08/25 12:59:40;;;;;;;4.47;3.23;;;;;;;;;;5058242;28;20052;-88
2022/08/25 13:02:25;;;;;;;5.70;3.40;;;;;;;;;;5072997;28;20045;-86
2022/08/25 13:04:55;;;;;;;7.70;3.60;;;;;;;;;;5069122;28;20106;-86
2022/08/25 13:07:32;;;;;;;3.95;2.80;;;;;;;;;;5052496;28;20053;-86
2022/08/25 13:10:16;;;;;;;3.50;2.97;;;;;;;;;;5052768;28;20393;-86
2022/08/25 13:12:47;;;;;;;4.95;3.20;;;;;;;;;;5053096;28;20106;-85
2022/08/25 13:15:14;;;;;;;3.53;2.90;;;;;;;;;;5051852;28;20033;-87
2022/08/25 13:17:40;;;;;;;4.55;3.20;;;;;;;;;;5061018;28;20037;-85
2022/08/25 13:20:14;;;;;;;4.35;3.00;;;;;;;;;;5061589;28;20080;-85
2022/08/25 13:22:43;;;;;;;7.10;3.53;;;;;;;;;;5052916;28;20052;-85
2022/08/25 13:25:14;;;;;;;4.00;3.28;;;;;;;;;;5052053;28;20092;-85
2022/08/25 13:27:40;;;;;;;4.55;3.30;;;;;;;;;;5051600;28;20123;-86
2022/08/25 13:30:07;;;;;;;4.70;3.30;;;;;;;;;;5052892;28;20056;-85
2022/08/25 13:32:35;;;;;;;5.60;3.55;;;;;;;;;;5051385;28;20045;-86
2022/08/25 13:35:10;;;;;;;5.35;3.17;;;;;;;;;;5052474;28;20048;-86
2022/08/25 13:37:36;;;;;;;3.72;3.10;;;;;;;;;;5051592;28;20529;-86
2022/08/25 13:40:16;;;;;;;4.13;3.33;;;;;;;;;;5054120;28;20099;-86
2022/08/25 13:42:44;;;;;;;4.53;3.50;;;;;;;;;;5069997;28;20102;-86
2022/08/25 13:45:18;;;;;;;4.63;3.50;;;;;;;;;;5070067;28;20114;-86
2022/08/25 13:47:45;;;;;;;3.72;3.28;;;;;;;;;;5055468;28;20041;-87
2022/08/25 13:50:22;;;;;;;6.00;3.30;;;;;;;;;;5038142;28;20383;-86
2022/08/25 13:52:50;;;;;;;6.60;3.80;;;;;;;;;;5054821;28;20102;-86
2022/08/25 13:55:21;;;;;;;7.60;4.05;;;;;;;;;;5054547;28;20063;-86
2022/08/25 13:57:47;;;;;;;5.05;3.58;;;;;;;;;;5054337;28;20049;-85
2022/08/25 14:00:13;;;;;;;6.03;3.67;;;;;;;;;;5055399;28;20084;-86
2022/08/25 14:02:42;;;;;;;5.90;3.40;;;;;;;;;;5055878;28;20052;-86
2022/08/25 14:05:08;;;;;;;4.43;3.60;;;;;;;;;;5056404;28;20064;-85
2022/08/25 14:07:36;;;;;;;4.47;3.20;;;;;;;;;;5055826;28;20045;-85
2022/08/25 14:10:22;;;;;;;7.38;4.13;;;;;;;;;;5055861;28;20053;-85
2022/08/25 14:13:07;;;;;;;5.45;3.45;;;;;;;;;;5052902;28;20041;-85
2022/08/25 14:15:34;;;;;;;7.60;4.50;;;;;;;;;;5056052;28;20397;-85
2022/08/25 14:18:02;;;;;;;5.80;4.10;;;;;;;;;;5054563;28;20041;-85
2022/08/25 14:20:29;;;;;;;6.88;4.60;;;;;;;;;;5055835;28;20128;-84
2022/08/25 14:22:57;;;;;;;6.10;3.50;;;;;;;;;;5037758;28;20048;-85
2022/08/25 14:25:24;;;;;;;8.52;4.07;;;;;;;;;;5053735;28;20044;-86
2022/08/25 14:27:58;;;;;;;5.18;3.30;;;;;;;;;;5053491;28;20041;-85
2022/08/25 14:30:24;;;;;;;4.72;3.67;;;;;;;;;;5053910;28;20041;-86
2022/08/25 14:32:51;;;;;;;5.65;3.53;;;;;;;;;;5054812;28;20080;-86
2022/08/25 14:35:17;;;;;;;4.40;3.33;;;;;;;;;;5058369;28;20124;-84
2022/08/25 14:37:43;;;;;;;5.43;3.40;;;;;;;;;;5077043;28;20040;-85
2022/08/25 14:40:12;;;;;;;4.90;3.40;;;;;;;;;;5078456;28;20045;-86
2022/08/25 14:42:41;;;;;;;5.68;3.67;;;;;;;;;;5075240;28;20052;-85
2022/08/25 14:45:07;;;;;;;3.50;3.13;;;;;;;;;;5064188;28;20052;-85
2022/08/25 14:47:34;;;;;;;5.10;3.80;;;;;;;;;;5057545;28;20049;-86
2022/08/25 14:50:00;;;;;;;4.97;3.63;;;;;;;;;;5057099;28;20045;-84
2022/08/25 14:52:29;;;;;;;5.25;3.72;;;;;;;;;;5058027;28;20037;-85
2022/08/25 14:54:58;;;;;;;5.40;3.58;;;;;;;;;;5059161;28;20079;-85
2022/08/25 14:57:27;;;;;;;4.50;3.50;;;;;;;;;;5055260;28;20405;-86
2022/08/25 14:59:57;;;;;;;6.20;3.30;;;;;;;;;;5037315;28;20075;-85
2022/08/25 15:02:23;;;;;;;4.53;3.42;;;;;;;;;;5055484;28;20090;-85
2022/08/25 15:04:56;;;;;;;4.38;3.42;;;;;;;;;;5055202;28;20057;-85
2022/08/25 15:10:08;;;;;;;6.32;3.22;;;;;;;;;;5054586;28;20406;-86
2022/08/25 15:12:34;;;;;;;5.45;3.30;;;;;;;;;;5054865;28;20037;-86